sensor_id;sensor_type;location;lat;lon;timestamp;temperature;humidity
37322;DHT22;23697;48.684;9.032;2023-05-23T00:00:33;15.90;84.00
37322;DHT22;23697;48.684;9.032;2023-05-23T00:03:13;16.00;84.10
37322;DHT22;23697;48.684;9.032;2023-05-23T00:05:44;16.00;84.20
37322;DHT22;23697;48.684;9.032;2023-05-23T00:08:23;16.00;84.20
37322;DHT22;23697;48.684;9.032;2023-05-23T00:10:50;16.00;84.30
37322;DHT22;23697;48.684;9.032;2023-05-23T00:13:17;16.10;84.30
37322;DHT22;23697;48.684;9.032;2023-05-23T00:18:54;16.10;84.60
37322;DHT22;23697;48.684;9.032;2023-05-23T00:21:23;16.10;84.70
37322;DHT22;23697;48.684;9.032;2023-05-23T00:23:52;16.10;84.80
37322;DHT22;23697;48.684;9.032;2023-05-23T00:26:19;16.20;85.00
37322;DHT22;23697;48.684;9.032;2023-05-23T00:28:49;16.30;85.10
37322;DHT22;23697;48.684;9.032;2023-05-23T00:31:19;16.30;85.10
37322;DHT22;23697;48.684;9.032;2023-05-23T00:33:46;16.30;85.20
37322;DHT22;23697;48.684;9.032;2023-05-23T00:36:15;16.20;85.20
37322;DHT22;23697;48.684;9.032;2023-05-23T00:38:48;16.30;85.30
37322;DHT22;23697;48.684;9.032;2023-05-23T00:41:15;16.30;85.40
37322;DHT22;23697;48.684;9.032;2023-05-23T00:43:42;16.40;85.40
37322;DHT22;23697;48.684;9.032;2023-05-23T00:46:14;16.40;85.50
37322;DHT22;23697;48.684;9.032;2023-05-23T00:48:42;16.40;85.60
37322;DHT22;23697;48.684;9.032;2023-05-23T00:51:11;16.40;85.70
37322;DHT22;23697;48.684;9.032;2023-05-23T00:53:40;16.50;85.70
37322;DHT22;23697;48.684;9.032;2023-05-23T00:56:07;16.50;85.80
37322;DHT22;23697;48.684;9.032;2023-05-23T00:58:34;16.50;85.70
37322;DHT22;23697;48.684;9.032;2023-05-23T01:01:01;16.50;85.80
37322;DHT22;23697;48.684;9.032;2023-05-23T01:03:28;16.50;85.80
37322;DHT22;23697;48.684;9.032;2023-05-23T01:05:54;16.50;85.80
37322;DHT22;23697;48.684;9.032;2023-05-23T01:08:21;16.50;85.80
37322;DHT22;23697;48.684;9.032;2023-05-23T01:10:50;16.50;85.90
37322;DHT22;23697;48.684;9.032;2023-05-23T01:13:20;16.50;85.80
37322;DHT22;23697;48.684;9.032;2023-05-23T01:15:49;16.50;85.90
37322;DHT22;23697;48.684;9.032;2023-05-23T01:18:17;16.60;85.70
37322;DHT22;23697;48.684;9.032;2023-05-23T01:20:46;16.50;85.80
37322;DHT22;23697;48.684;9.032;2023-05-23T01:23:28;16.50;85.90
37322;DHT22;23697;48.684;9.032;2023-05-23T01:28:53;16.60;85.90
37322;DHT22;23697;48.684;9.032;2023-05-23T01:31:21;16.50;85.80
37322;DHT22;23697;48.684;9.032;2023-05-23T01:33:50;16.50;85.90
37322;DHT22;23697;48.684;9.032;2023-05-23T01:36:19;16.50;85.90
37322;DHT22;23697;48.684;9.032;2023-05-23T01:38:46;16.50;86.00
37322;DHT22;23697;48.684;9.032;2023-05-23T01:41:13;16.40;86.00
37322;DHT22;23697;48.684;9.032;2023-05-23T01:43:40;16.40;86.00
37322;DHT22;23697;48.684;9.032;2023-05-23T01:46:11;16.50;86.00
37322;DHT22;23697;48.684;9.032;2023-05-23T01:48:38;16.50;86.00
37322;DHT22;23697;48.684;9.032;2023-05-23T01:51:08;16.50;86.00
37322;DHT22;23697;48.684;9.032;2023-05-23T01:53:36;16.50;86.00
37322;DHT22;23697;48.684;9.032;2023-05-23T01:56:06;16.40;86.10
37322;DHT22;23697;48.684;9.032;2023-05-23T01:58:33;16.40;86.20
37322;DHT22;23697;48.684;9.032;2023-05-23T02:01:01;16.40;86.20
37322;DHT22;23697;48.684;9.032;2023-05-23T02:03:29;16.40;86.20
37322;DHT22;23697;48.684;9.032;2023-05-23T02:05:56;16.50;86.20
37322;DHT22;23697;48.684;9.032;2023-05-23T02:08:26;16.50;86.20
37322;DHT22;23697;48.684;9.032;2023-05-23T02:10:56;16.40;86.20
37322;DHT22;23697;48.684;9.032;2023-05-23T02:13:22;16.40;86.30
37322;DHT22;23697;48.684;9.032;2023-05-23T02:15:52;16.30;86.30
37322;DHT22;23697;48.684;9.032;2023-05-23T02:18:19;16.30;86.30
37322;DHT22;23697;48.684;9.032;2023-05-23T02:20:47;16.30;86.30
37322;DHT22;23697;48.684;9.032;2023-05-23T02:23:16;16.30;86.40
37322;DHT22;23697;48.684;9.032;2023-05-23T02:25:42;16.30;86.40
37322;DHT22;23697;48.684;9.032;2023-05-23T02:28:09;16.20;86.40
37322;DHT22;23697;48.684;9.032;2023-05-23T02:30:37;16.20;86.40
37322;DHT22;23697;48.684;9.032;2023-05-23T02:33:04;16.20;86.40
37322;DHT22;23697;48.684;9.032;2023-05-23T02:35:30;16.10;86.40
37322;DHT22;23697;48.684;9.032;2023-05-23T02:38:01;16.20;86.50
37322;DHT22;23697;48.684;9.032;2023-05-23T02:40:30;16.10;86.50
37322;DHT22;23697;48.684;9.032;2023-05-23T02:42:57;16.10;86.60
37322;DHT22;23697;48.684;9.032;2023-05-23T02:45:25;16.10;86.70
37322;DHT22;23697;48.684;9.032;2023-05-23T02:47:52;16.10;86.80
37322;DHT22;23697;48.684;9.032;2023-05-23T02:50:19;16.10;86.80
37322;DHT22;23697;48.684;9.032;2023-05-23T02:52:45;16.10;86.80
37322;DHT22;23697;48.684;9.032;2023-05-23T02:55:15;16.10;86.80
37322;DHT22;23697;48.684;9.032;2023-05-23T02:57:42;16.10;86.70
37322;DHT22;23697;48.684;9.032;2023-05-23T03:00:10;16.10;86.70
37322;DHT22;23697;48.684;9.032;2023-05-23T03:02:37;16.10;86.80
37322;DHT22;23697;48.684;9.032;2023-05-23T03:05:07;16.10;86.80
37322;DHT22;23697;48.684;9.032;2023-05-23T03:07:34;16.10;86.90
37322;DHT22;23697;48.684;9.032;2023-05-23T03:10:01;16.10;86.80
37322;DHT22;23697;48.684;9.032;2023-05-23T03:12:29;16.10;86.80
37322;DHT22;23697;48.684;9.032;2023-05-23T03:14:56;16.10;86.80
37322;DHT22;23697;48.684;9.032;2023-05-23T03:17:32;16.10;86.80
37322;DHT22;23697;48.684;9.032;2023-05-23T03:20:01;16.10;86.80
37322;DHT22;23697;48.684;9.032;2023-05-23T03:22:29;16.10;86.80
37322;DHT22;23697;48.684;9.032;2023-05-23T03:24:56;16.00;86.90
37322;DHT22;23697;48.684;9.032;2023-05-23T03:27:22;16.10;86.90
37322;DHT22;23697;48.684;9.032;2023-05-23T03:29:53;16.00;86.90
37322;DHT22;23697;48.684;9.032;2023-05-23T03:32:20;16.20;86.80
37322;DHT22;23697;48.684;9.032;2023-05-23T03:34:50;16.20;86.70
37322;DHT22;23697;48.684;9.032;2023-05-23T03:37:20;16.10;86.70
37322;DHT22;23697;48.684;9.032;2023-05-23T03:39:47;16.20;86.70
37322;DHT22;23697;48.684;9.032;2023-05-23T03:42:13;16.30;86.60
37322;DHT22;23697;48.684;9.032;2023-05-23T03:44:40;16.20;86.60
37322;DHT22;23697;48.684;9.032;2023-05-23T03:47:13;16.20;86.60
37322;DHT22;23697;48.684;9.032;2023-05-23T03:49:39;16.20;86.60
37322;DHT22;23697;48.684;9.032;2023-05-23T03:52:09;16.20;86.60
37322;DHT22;23697;48.684;9.032;2023-05-23T03:54:36;16.10;86.60
37322;DHT22;23697;48.684;9.032;2023-05-23T03:57:03;16.20;86.70
37322;DHT22;23697;48.684;9.032;2023-05-23T03:59:31;16.20;86.80
37322;DHT22;23697;48.684;9.032;2023-05-23T04:02:00;16.10;86.80
37322;DHT22;23697;48.684;9.032;2023-05-23T04:04:33;16.10;86.90
37322;DHT22;23697;48.684;9.032;2023-05-23T04:07:00;16.10;86.90
37322;DHT22;23697;48.684;9.032;2023-05-23T04:09:27;16.10;86.90
37322;DHT22;23697;48.684;9.032;2023-05-23T04:11:57;16.20;86.80
37322;DHT22;23697;48.684;9.032;2023-05-23T04:14:24;16.20;86.80
37322;DHT22;23697;48.684;9.032;2023-05-23T04:16:51;16.20;86.80
37322;DHT22;23697;48.684;9.032;2023-05-23T04:19:18;16.10;86.80
37322;DHT22;23697;48.684;9.032;2023-05-23T04:21:47;16.10;86.80
37322;DHT22;23697;48.684;9.032;2023-05-23T04:24:14;16.20;86.80
37322;DHT22;23697;48.684;9.032;2023-05-23T04:26:40;16.10;86.90
37322;DHT22;23697;48.684;9.032;2023-05-23T04:29:10;16.10;86.90
37322;DHT22;23697;48.684;9.032;2023-05-23T04:31:37;16.20;86.80
37322;DHT22;23697;48.684;9.032;2023-05-23T04:34:04;16.10;86.70
37322;DHT22;23697;48.684;9.032;2023-05-23T04:36:33;16.10;86.70
37322;DHT22;23697;48.684;9.032;2023-05-23T04:39:03;16.20;86.70
37322;DHT22;23697;48.684;9.032;2023-05-23T04:41:31;16.20;86.70
37322;DHT22;23697;48.684;9.032;2023-05-23T04:43:57;16.30;86.40
37322;DHT22;23697;48.684;9.032;2023-05-23T04:46:24;16.20;86.40
37322;DHT22;23697;48.684;9.032;2023-05-23T04:48:51;16.20;86.50
37322;DHT22;23697;48.684;9.032;2023-05-23T04:51:19;16.20;86.60
37322;DHT22;23697;48.684;9.032;2023-05-23T04:53:46;16.10;86.50
37322;DHT22;23697;48.684;9.032;2023-05-23T04:56:14;16.10;86.60
37322;DHT22;23697;48.684;9.032;2023-05-23T04:58:42;16.10;86.60
37322;DHT22;23697;48.684;9.032;2023-05-23T05:01:12;16.10;86.70
37322;DHT22;23697;48.684;9.032;2023-05-23T05:03:41;16.10;86.70
37322;DHT22;23697;48.684;9.032;2023-05-23T05:06:09;16.10;86.80
37322;DHT22;23697;48.684;9.032;2023-05-23T05:08:39;16.10;86.70
37322;DHT22;23697;48.684;9.032;2023-05-23T05:11:14;16.00;86.70
37322;DHT22;23697;48.684;9.032;2023-05-23T05:13:45;16.10;86.60
37322;DHT22;23697;48.684;9.032;2023-05-23T05:16:12;16.10;86.50
37322;DHT22;23697;48.684;9.032;2023-05-23T05:18:41;16.10;86.50
37322;DHT22;23697;48.684;9.032;2023-05-23T05:21:11;16.20;86.50
37322;DHT22;23697;48.684;9.032;2023-05-23T05:23:37;16.20;86.40
37322;DHT22;23697;48.684;9.032;2023-05-23T05:26:04;16.10;86.40
37322;DHT22;23697;48.684;9.032;2023-05-23T05:28:32;16.20;86.20
37322;DHT22;23697;48.684;9.032;2023-05-23T05:31:00;16.20;86.10
37322;DHT22;23697;48.684;9.032;2023-05-23T05:33:29;16.10;86.30
37322;DHT22;23697;48.684;9.032;2023-05-23T05:36:00;16.10;86.40
37322;DHT22;23697;48.684;9.032;2023-05-23T05:38:27;16.10;86.30
37322;DHT22;23697;48.684;9.032;2023-05-23T05:40:57;16.10;86.30
37322;DHT22;23697;48.684;9.032;2023-05-23T05:43:24;16.10;86.30
37322;DHT22;23697;48.684;9.032;2023-05-23T05:45:50;16.10;86.10
37322;DHT22;23697;48.684;9.032;2023-05-23T05:48:18;16.10;86.10
37322;DHT22;23697;48.684;9.032;2023-05-23T05:50:45;16.10;86.10
37322;DHT22;23697;48.684;9.032;2023-05-23T05:53:12;16.10;86.10
37322;DHT22;23697;48.684;9.032;2023-05-23T05:55:39;16.10;86.30
37322;DHT22;23697;48.684;9.032;2023-05-23T05:58:06;16.10;86.10
37322;DHT22;23697;48.684;9.032;2023-05-23T06:00:32;16.10;86.10
37322;DHT22;23697;48.684;9.032;2023-05-23T06:03:06;16.10;86.10
37322;DHT22;23697;48.684;9.032;2023-05-23T06:05:34;16.10;86.10
37322;DHT22;23697;48.684;9.032;2023-05-23T06:08:03;16.10;86.20
37322;DHT22;23697;48.684;9.032;2023-05-23T06:10:30;16.10;86.10
37322;DHT22;23697;48.684;9.032;2023-05-23T06:12:57;16.10;86.20
37322;DHT22;23697;48.684;9.032;2023-05-23T06:15:24;16.20;86.10
37322;DHT22;23697;48.684;9.032;2023-05-23T06:17:51;16.10;86.00
37322;DHT22;23697;48.684;9.032;2023-05-23T06:20:18;16.10;86.10
37322;DHT22;23697;48.684;9.032;2023-05-23T06:22:46;16.10;86.10
37322;DHT22;23697;48.684;9.032;2023-05-23T06:25:12;16.10;86.00
37322;DHT22;23697;48.684;9.032;2023-05-23T06:27:39;16.20;85.80
37322;DHT22;23697;48.684;9.032;2023-05-23T06:30:09;16.20;85.80
37322;DHT22;23697;48.684;9.032;2023-05-23T06:32:36;16.20;85.80
37322;DHT22;23697;48.684;9.032;2023-05-23T06:35:03;16.10;86.00
37322;DHT22;23697;48.684;9.032;2023-05-23T06:37:29;16.10;86.00
37322;DHT22;23697;48.684;9.032;2023-05-23T06:39:57;16.20;86.10
37322;DHT22;23697;48.684;9.032;2023-05-23T06:42:25;16.30;85.80
37322;DHT22;23697;48.684;9.032;2023-05-23T06:44:52;16.30;85.50
37322;DHT22;23697;48.684;9.032;2023-05-23T06:47:18;16.30;85.30
37322;DHT22;23697;48.684;9.032;2023-05-23T06:49:45;16.30;85.50
37322;DHT22;23697;48.684;9.032;2023-05-23T06:52:12;16.30;84.80
37322;DHT22;23697;48.684;9.032;2023-05-23T06:54:39;16.30;84.50
37322;DHT22;23697;48.684;9.032;2023-05-23T06:57:07;16.30;84.80
37322;DHT22;23697;48.684;9.032;2023-05-23T06:59:34;16.20;84.80
37322;DHT22;23697;48.684;9.032;2023-05-23T07:02:00;16.30;85.00
37322;DHT22;23697;48.684;9.032;2023-05-23T07:04:27;16.30;84.90
37322;DHT22;23697;48.684;9.032;2023-05-23T07:06:54;16.30;85.10
37322;DHT22;23697;48.684;9.032;2023-05-23T07:09:20;16.20;85.00
37322;DHT22;23697;48.684;9.032;2023-05-23T07:11:47;16.20;85.00
37322;DHT22;23697;48.684;9.032;2023-05-23T07:14:15;16.20;85.00
37322;DHT22;23697;48.684;9.032;2023-05-23T07:16:42;16.20;85.00
37322;DHT22;23697;48.684;9.032;2023-05-23T07:19:08;16.20;84.70
37322;DHT22;23697;48.684;9.032;2023-05-23T07:21:35;16.20;84.20
37322;DHT22;23697;48.684;9.032;2023-05-23T07:24:02;16.10;84.10
37322;DHT22;23697;48.684;9.032;2023-05-23T07:26:29;16.10;84.10
37322;DHT22;23697;48.684;9.032;2023-05-23T07:28:59;16.00;84.40
37322;DHT22;23697;48.684;9.032;2023-05-23T07:31:27;16.00;84.50
37322;DHT22;23697;48.684;9.032;2023-05-23T07:33:56;16.00;84.20
37322;DHT22;23697;48.684;9.032;2023-05-23T07:36:23;15.90;83.80
37322;DHT22;23697;48.684;9.032;2023-05-23T07:38:50;15.80;84.30
37322;DHT22;23697;48.684;9.032;2023-05-23T07:41:17;15.90;84.10
37322;DHT22;23697;48.684;9.032;2023-05-23T07:43:44;15.90;84.00
37322;DHT22;23697;48.684;9.032;2023-05-23T07:46:10;15.80;84.00
37322;DHT22;23697;48.684;9.032;2023-05-23T07:48:38;15.80;84.20
37322;DHT22;23697;48.684;9.032;2023-05-23T07:51:05;15.90;83.40
37322;DHT22;23697;48.684;9.032;2023-05-23T07:53:32;15.80;83.50
37322;DHT22;23697;48.684;9.032;2023-05-23T07:55:59;15.70;83.60
37322;DHT22;23697;48.684;9.032;2023-05-23T07:58:26;15.70;83.50
37322;DHT22;23697;48.684;9.032;2023-05-23T08:00:53;15.70;83.50
37322;DHT22;23697;48.684;9.032;2023-05-23T08:03:19;15.70;83.70
37322;DHT22;23697;48.684;9.032;2023-05-23T08:05:50;15.80;83.90
37322;DHT22;23697;48.684;9.032;2023-05-23T08:08:16;15.80;83.90
37322;DHT22;23697;48.684;9.032;2023-05-23T08:10:43;15.90;83.80
37322;DHT22;23697;48.684;9.032;2023-05-23T08:13:11;16.00;83.30
37322;DHT22;23697;48.684;9.032;2023-05-23T08:15:38;16.10;83.00
37322;DHT22;23697;48.684;9.032;2023-05-23T08:18:04;16.00;82.50
37322;DHT22;23697;48.684;9.032;2023-05-23T08:20:31;15.90;82.90
37322;DHT22;23697;48.684;9.032;2023-05-23T08:22:59;16.00;82.60
37322;DHT22;23697;48.684;9.032;2023-05-23T08:25:26;16.00;82.90
37322;DHT22;23697;48.684;9.032;2023-05-23T08:27:54;16.00;83.00
37322;DHT22;23697;48.684;9.032;2023-05-23T08:30:21;15.90;82.30
37322;DHT22;23697;48.684;9.032;2023-05-23T08:32:50;15.80;82.00
37322;DHT22;23697;48.684;9.032;2023-05-23T08:35:16;15.70;82.00
37322;DHT22;23697;48.684;9.032;2023-05-23T08:37:43;15.70;82.40
37322;DHT22;23697;48.684;9.032;2023-05-23T08:40:13;15.70;82.50
37322;DHT22;23697;48.684;9.032;2023-05-23T08:42:43;15.70;82.00
37322;DHT22;23697;48.684;9.032;2023-05-23T08:45:10;15.70;81.90
37322;DHT22;23697;48.684;9.032;2023-05-23T08:47:37;15.60;81.90
37322;DHT22;23697;48.684;9.032;2023-05-23T08:50:04;15.60;82.20
37322;DHT22;23697;48.684;9.032;2023-05-23T08:52:32;15.60;82.40
37322;DHT22;23697;48.684;9.032;2023-05-23T08:54:59;15.60;82.60
37322;DHT22;23697;48.684;9.032;2023-05-23T08:57:27;15.60;82.60
37322;DHT22;23697;48.684;9.032;2023-05-23T08:59:54;15.60;82.50
37322;DHT22;23697;48.684;9.032;2023-05-23T09:02:21;15.60;82.40
37322;DHT22;23697;48.684;9.032;2023-05-23T09:04:48;15.60;81.80
37322;DHT22;23697;48.684;9.032;2023-05-23T09:07:14;15.70;81.70
37322;DHT22;23697;48.684;9.032;2023-05-23T09:09:41;15.60;81.70
37322;DHT22;23697;48.684;9.032;2023-05-23T09:12:08;15.70;82.40
37322;DHT22;23697;48.684;9.032;2023-05-23T09:14:39;15.70;81.60
37322;DHT22;23697;48.684;9.032;2023-05-23T09:17:05;15.80;81.70
37322;DHT22;23697;48.684;9.032;2023-05-23T09:19:32;15.90;82.00
37322;DHT22;23697;48.684;9.032;2023-05-23T09:21:59;16.00;80.50
37322;DHT22;23697;48.684;9.032;2023-05-23T09:24:32;16.00;80.40
37322;DHT22;23697;48.684;9.032;2023-05-23T09:26:59;16.10;80.60
37322;DHT22;23697;48.684;9.032;2023-05-23T09:29:26;16.20;80.50
37322;DHT22;23697;48.684;9.032;2023-05-23T09:31:58;16.30;79.90
37322;DHT22;23697;48.684;9.032;2023-05-23T09:34:25;16.30;80.00
37322;DHT22;23697;48.684;9.032;2023-05-23T09:36:53;16.30;79.30
37322;DHT22;23697;48.684;9.032;2023-05-23T09:39:20;16.30;79.30
37322;DHT22;23697;48.684;9.032;2023-05-23T09:41:47;16.20;79.50
37322;DHT22;23697;48.684;9.032;2023-05-23T09:44:14;16.30;78.10
37322;DHT22;23697;48.684;9.032;2023-05-23T09:46:49;16.40;77.60
37322;DHT22;23697;48.684;9.032;2023-05-23T09:49:18;16.50;78.60
37322;DHT22;23697;48.684;9.032;2023-05-23T09:51:56;16.50;78.50
37322;DHT22;23697;48.684;9.032;2023-05-23T09:54:23;16.60;78.30
37322;DHT22;23697;48.684;9.032;2023-05-23T09:56:49;16.80;77.20
37322;DHT22;23697;48.684;9.032;2023-05-23T09:59:18;17.10;77.40
37322;DHT22;23697;48.684;9.032;2023-05-23T10:01:48;17.30;75.90
37322;DHT22;23697;48.684;9.032;2023-05-23T10:04:17;17.40;75.70
37322;DHT22;23697;48.684;9.032;2023-05-23T10:06:48;17.40;74.30
37322;DHT22;23697;48.684;9.032;2023-05-23T10:09:16;17.40;75.10
37322;DHT22;23697;48.684;9.032;2023-05-23T10:14:32;17.50;75.00
37322;DHT22;23697;48.684;9.032;2023-05-23T10:17:01;17.60;73.70
37322;DHT22;23697;48.684;9.032;2023-05-23T10:19:37;17.50;74.00
37322;DHT22;23697;48.684;9.032;2023-05-23T10:22:07;17.50;73.40
37322;DHT22;23697;48.684;9.032;2023-05-23T10:24:35;17.50;73.80
37322;DHT22;23697;48.684;9.032;2023-05-23T10:27:03;17.60;73.50
37322;DHT22;23697;48.684;9.032;2023-05-23T10:29:30;17.60;72.80
37322;DHT22;23697;48.684;9.032;2023-05-23T10:31:57;17.70;71.70
37322;DHT22;23697;48.684;9.032;2023-05-23T10:34:28;17.80;73.20
37322;DHT22;23697;48.684;9.032;2023-05-23T10:36:59;17.90;72.60
37322;DHT22;23697;48.684;9.032;2023-05-23T10:39:30;18.10;73.10
37322;DHT22;23697;48.684;9.032;2023-05-23T10:41:59;18.10;72.30
37322;DHT22;23697;48.684;9.032;2023-05-23T10:44:27;18.10;69.90
37322;DHT22;23697;48.684;9.032;2023-05-23T10:46:54;18.10;70.00
37322;DHT22;23697;48.684;9.032;2023-05-23T10:49:32;18.30;71.10
37322;DHT22;23697;48.684;9.032;2023-05-23T10:52:04;18.40;69.90
37322;DHT22;23697;48.684;9.032;2023-05-23T10:54:33;18.60;71.30
37322;DHT22;23697;48.684;9.032;2023-05-23T10:57:03;18.80;69.80
37322;DHT22;23697;48.684;9.032;2023-05-23T10:59:30;18.90;69.20
37322;DHT22;23697;48.684;9.032;2023-05-23T11:01:57;19.00;68.00
37322;DHT22;23697;48.684;9.032;2023-05-23T11:04:25;19.10;65.50
37322;DHT22;23697;48.684;9.032;2023-05-23T11:06:52;19.10;65.80
37322;DHT22;23697;48.684;9.032;2023-05-23T11:09:21;19.10;66.70
37322;DHT22;23697;48.684;9.032;2023-05-23T11:11:51;19.30;65.60
37322;DHT22;23697;48.684;9.032;2023-05-23T11:14:18;19.10;65.10
37322;DHT22;23697;48.684;9.032;2023-05-23T11:16:45;19.00;66.60
37322;DHT22;23697;48.684;9.032;2023-05-23T11:19:22;18.80;67.30
37322;DHT22;23697;48.684;9.032;2023-05-23T11:21:52;18.70;66.90
37322;DHT22;23697;48.684;9.032;2023-05-23T11:24:21;18.60;67.10
37322;DHT22;23697;48.684;9.032;2023-05-23T11:26:51;18.60;66.80
37322;DHT22;23697;48.684;9.032;2023-05-23T11:29:18;18.60;66.30
37322;DHT22;23697;48.684;9.032;2023-05-23T11:31:45;18.50;67.20
37322;DHT22;23697;48.684;9.032;2023-05-23T11:34:11;18.40;66.50
37322;DHT22;23697;48.684;9.032;2023-05-23T11:36:38;18.40;67.50
37322;DHT22;23697;48.684;9.032;2023-05-23T11:39:07;18.40;69.00
37322;DHT22;23697;48.684;9.032;2023-05-23T11:41:36;18.50;68.10
37322;DHT22;23697;48.684;9.032;2023-05-23T11:44:09;18.40;66.30
37322;DHT22;23697;48.684;9.032;2023-05-23T11:46:36;18.50;68.30
37322;DHT22;23697;48.684;9.032;2023-05-23T11:49:04;18.50;66.10
37322;DHT22;23697;48.684;9.032;2023-05-23T11:51:35;18.60;65.60
37322;DHT22;23697;48.684;9.032;2023-05-23T11:54:02;18.80;65.10
37322;DHT22;23697;48.684;9.032;2023-05-23T11:56:39;19.00;64.90
37322;DHT22;23697;48.684;9.032;2023-05-23T11:59:06;18.80;64.70
37322;DHT22;23697;48.684;9.032;2023-05-23T12:01:35;18.80;65.30
37322;DHT22;23697;48.684;9.032;2023-05-23T12:04:07;18.90;65.20
37322;DHT22;23697;48.684;9.032;2023-05-23T12:06:34;18.90;67.40
37322;DHT22;23697;48.684;9.032;2023-05-23T12:09:04;19.10;67.10
37322;DHT22;23697;48.684;9.032;2023-05-23T12:11:31;19.10;65.90
37322;DHT22;23697;48.684;9.032;2023-05-23T12:13:59;19.20;64.50
37322;DHT22;23697;48.684;9.032;2023-05-23T12:16:30;19.10;63.40
37322;DHT22;23697;48.684;9.032;2023-05-23T12:18:57;18.80;64.90
37322;DHT22;23697;48.684;9.032;2023-05-23T12:21:41;18.60;65.20
37322;DHT22;23697;48.684;9.032;2023-05-23T12:24:14;18.50;65.50
37322;DHT22;23697;48.684;9.032;2023-05-23T12:26:45;18.40;67.40
37322;DHT22;23697;48.684;9.032;2023-05-23T12:29:13;18.40;68.50
37322;DHT22;23697;48.684;9.032;2023-05-23T12:31:40;18.20;65.00
37322;DHT22;23697;48.684;9.032;2023-05-23T12:34:07;18.20;67.00
37322;DHT22;23697;48.684;9.032;2023-05-23T12:36:36;18.30;66.90
37322;DHT22;23697;48.684;9.032;2023-05-23T12:39:03;18.40;66.60
37322;DHT22;23697;48.684;9.032;2023-05-23T12:41:31;18.40;66.50
37322;DHT22;23697;48.684;9.032;2023-05-23T12:43:58;18.60;64.70
37322;DHT22;23697;48.684;9.032;2023-05-23T12:46:26;18.60;66.00
37322;DHT22;23697;48.684;9.032;2023-05-23T12:48:53;18.80;66.00
37322;DHT22;23697;48.684;9.032;2023-05-23T12:51:20;19.30;63.00
37322;DHT22;23697;48.684;9.032;2023-05-23T12:53:46;19.70;60.80
37322;DHT22;23697;48.684;9.032;2023-05-23T12:56:13;19.80;60.10
37322;DHT22;23697;48.684;9.032;2023-05-23T12:58:40;19.60;61.20
37322;DHT22;23697;48.684;9.032;2023-05-23T13:01:07;19.40;60.90
37322;DHT22;23697;48.684;9.032;2023-05-23T13:03:35;19.30;62.40
37322;DHT22;23697;48.684;9.032;2023-05-23T13:06:03;19.30;62.50
37322;DHT22;23697;48.684;9.032;2023-05-23T13:08:37;19.20;63.10
37322;DHT22;23697;48.684;9.032;2023-05-23T13:11:03;19.20;63.00
37322;DHT22;23697;48.684;9.032;2023-05-23T13:13:31;19.10;62.80
37322;DHT22;23697;48.684;9.032;2023-05-23T13:15:58;19.10;61.00
37322;DHT22;23697;48.684;9.032;2023-05-23T13:18:25;19.20;60.80
37322;DHT22;23697;48.684;9.032;2023-05-23T13:20:54;19.60;62.00
37322;DHT22;23697;48.684;9.032;2023-05-23T13:23:23;20.00;62.50
37322;DHT22;23697;48.684;9.032;2023-05-23T13:25:50;20.50;59.80
37322;DHT22;23697;48.684;9.032;2023-05-23T13:28:17;20.50;57.70
37322;DHT22;23697;48.684;9.032;2023-05-23T13:30:43;20.50;60.00
37322;DHT22;23697;48.684;9.032;2023-05-23T13:33:10;20.60;59.90
37322;DHT22;23697;48.684;9.032;2023-05-23T13:35:37;20.60;60.60
37322;DHT22;23697;48.684;9.032;2023-05-23T13:38:05;20.60;60.40
37322;DHT22;23697;48.684;9.032;2023-05-23T13:40:32;20.40;58.10
37322;DHT22;23697;48.684;9.032;2023-05-23T13:42:58;20.10;59.20
37322;DHT22;23697;48.684;9.032;2023-05-23T13:45:25;19.90;59.70
37322;DHT22;23697;48.684;9.032;2023-05-23T13:48:02;19.70;60.40
37322;DHT22;23697;48.684;9.032;2023-05-23T13:50:29;19.50;61.30
37322;DHT22;23697;48.684;9.032;2023-05-23T13:52:55;19.10;63.00
37322;DHT22;23697;48.684;9.032;2023-05-23T13:55:24;18.90;64.50
37322;DHT22;23697;48.684;9.032;2023-05-23T13:57:51;18.70;66.30
37322;DHT22;23697;48.684;9.032;2023-05-23T14:00:18;18.70;65.40
37322;DHT22;23697;48.684;9.032;2023-05-23T14:02:45;18.70;65.00
37322;DHT22;23697;48.684;9.032;2023-05-23T14:05:11;18.60;64.70
37322;DHT22;23697;48.684;9.032;2023-05-23T14:07:39;18.60;64.30
37322;DHT22;23697;48.684;9.032;2023-05-23T14:10:11;18.50;65.00
37322;DHT22;23697;48.684;9.032;2023-05-23T14:12:39;18.60;65.10
37322;DHT22;23697;48.684;9.032;2023-05-23T14:15:06;18.60;64.60
37322;DHT22;23697;48.684;9.032;2023-05-23T14:17:34;18.50;64.90
37322;DHT22;23697;48.684;9.032;2023-05-23T14:20:01;18.50;64.90
37322;DHT22;23697;48.684;9.032;2023-05-23T14:22:27;18.60;64.60
37322;DHT22;23697;48.684;9.032;2023-05-23T14:24:54;18.60;64.90
37322;DHT22;23697;48.684;9.032;2023-05-23T14:27:21;18.80;63.30
37322;DHT22;23697;48.684;9.032;2023-05-23T14:29:49;18.90;64.30
37322;DHT22;23697;48.684;9.032;2023-05-23T14:32:15;18.90;63.60
37322;DHT22;23697;48.684;9.032;2023-05-23T14:34:42;18.90;65.20
37322;DHT22;23697;48.684;9.032;2023-05-23T14:37:08;19.00;65.00
37322;DHT22;23697;48.684;9.032;2023-05-23T14:39:35;19.20;65.10
37322;DHT22;23697;48.684;9.032;2023-05-23T14:42:02;19.30;64.30
37322;DHT22;23697;48.684;9.032;2023-05-23T14:44:29;19.30;61.00
37322;DHT22;23697;48.684;9.032;2023-05-23T14:46:57;19.30;63.10
37322;DHT22;23697;48.684;9.032;2023-05-23T14:49:23;19.40;63.40
37322;DHT22;23697;48.684;9.032;2023-05-23T14:51:50;19.70;62.50
37322;DHT22;23697;48.684;9.032;2023-05-23T14:54:16;20.00;61.90
37322;DHT22;23697;48.684;9.032;2023-05-23T14:56:43;20.00;60.10
37322;DHT22;23697;48.684;9.032;2023-05-23T14:59:10;20.10;61.30
37322;DHT22;23697;48.684;9.032;2023-05-23T15:01:37;20.10;59.10
37322;DHT22;23697;48.684;9.032;2023-05-23T15:04:05;20.10;59.10
37322;DHT22;23697;48.684;9.032;2023-05-23T15:06:33;20.00;59.00
37322;DHT22;23697;48.684;9.032;2023-05-23T15:08:59;19.70;61.60
37322;DHT22;23697;48.684;9.032;2023-05-23T15:11:26;19.60;61.30
37322;DHT22;23697;48.684;9.032;2023-05-23T15:13:53;19.50;61.60
37322;DHT22;23697;48.684;9.032;2023-05-23T15:16:20;19.10;61.80
37322;DHT22;23697;48.684;9.032;2023-05-23T15:18:46;19.00;61.20
37322;DHT22;23697;48.684;9.032;2023-05-23T15:21:14;18.80;62.00
37322;DHT22;23697;48.684;9.032;2023-05-23T15:23:41;18.70;61.60
37322;DHT22;23697;48.684;9.032;2023-05-23T15:26:10;18.60;61.90
37322;DHT22;23697;48.684;9.032;2023-05-23T15:28:36;18.60;62.70
37322;DHT22;23697;48.684;9.032;2023-05-23T15:31:03;18.70;62.80
37322;DHT22;23697;48.684;9.032;2023-05-23T15:33:30;19.10;63.60
37322;DHT22;23697;48.684;9.032;2023-05-23T15:36:00;19.50;60.00
37322;DHT22;23697;48.684;9.032;2023-05-23T15:38:28;19.80;60.80
37322;DHT22;23697;48.684;9.032;2023-05-23T15:40:54;20.10;59.00
37322;DHT22;23697;48.684;9.032;2023-05-23T15:43:23;20.20;58.50